Time;durP1;ratioP1;P1;durP2;ratioP2;P2;SDS_P1;SDS_P2;PMS_P1;PMS_P2;Temp;Humidity;BMP_temperature;BMP_pressure;BME280_temperature;BME280_humidity;BME280_pressure;Samples;Min_cycle;Max_cycle;Signal;HPM_P1;HPM_P2
2024/01/12 00:00:28;;;;;;;27.50;12.95;;;1.90;99.90;;;;;;5069872;28;20075;-92
2024/01/12 00:02:54;;;;;;;30.13;12.40;;;1.90;99.90;;;;;;5049872;28;20032;-92
2024/01/12 00:05:19;;;;;;;26.30;11.27;;;1.90;99.90;;;;;;5049989;28;20044;-92
2024/01/12 00:07:45;;;;;;;22.83;10.82;;;1.90;99.90;;;;;;5067041;28;20446;-91
2024/01/12 00:10:11;;;;;;;25.65;10.77;;;1.90;99.90;;;;;;5066914;28;20032;-91
2024/01/12 00:12:36;;;;;;;25.90;11.60;;;1.90;99.90;;;;;;5068934;28;20040;-92
2024/01/12 00:15:05;;;;;;;30.10;11.55;;;1.90;99.90;;;;;;5050283;28;20488;-92
2024/01/12 00:17:31;;;;;;;30.13;10.95;;;1.90;99.90;;;;;;5051347;28;20036;-91
2024/01/12 00:19:57;;;;;;;27.50;11.77;;;1.90;99.90;;;;;;5068685;28;20039;-92
2024/01/12 00:22:22;;;;;;;28.50;11.48;;;1.90;99.90;;;;;;5054831;28;20388;-92
2024/01/12 00:24:49;;;;;;;25.05;11.52;;;1.90;99.90;;;;;;5070260;28;20055;-91
2024/01/12 00:27:14;;;;;;;22.55;10.27;;;1.90;99.90;;;;;;5073729;28;20119;-91
2024/01/12 00:29:40;;;;;;;26.02;9.43;;;1.90;99.90;;;;;;5054336;28;20650;-90
2024/01/12 00:32:06;;;;;;;25.70;11.40;;;1.90;99.90;;;;;;5070894;28;20033;-91
2024/01/12 00:34:32;;;;;;;26.85;12.73;;;1.90;99.90;;;;;;5071438;28;20029;-91
2024/01/12 00:36:57;;;;;;;28.30;12.25;;;1.90;99.90;;;;;;5054348;28;20408;-91
2024/01/12 00:39:23;;;;;;;29.35;12.07;;;1.90;99.90;;;;;;5072100;28;20415;-91
2024/01/12 00:41:50;;;;;;;26.45;11.93;;;1.90;99.90;;;;;;5071107;28;20545;-91
2024/01/12 00:44:18;;;;;;;26.70;11.75;;;1.90;99.90;;;;;;5071187;28;20495;-91
2024/01/12 00:46:44;;;;;;;24.55;12.02;;;1.90;99.90;;;;;;5055156;28;20518;-92
2024/01/12 00:49:10;;;;;;;21.67;11.82;;;1.90;99.90;;;;;;5071821;28;20095;-91
2024/01/12 00:51:36;;;;;;;28.27;9.98;;;1.90;99.90;;;;;;5069861;28;20557;-92
2024/01/12 00:54:02;;;;;;;22.38;10.65;;;1.90;99.90;;;;;;5053274;28;20029;-91
2024/01/12 00:56:28;;;;;;;23.02;9.90;;;1.90;99.90;;;;;;5070186;28;20028;-90
2024/01/12 00:58:53;;;;;;;29.30;11.85;;;1.80;99.90;;;;;;5055566;28;20032;-91
2024/01/12 01:01:19;;;;;;;21.88;9.60;;;1.80;99.90;;;;;;5070972;28;20503;-91
2024/01/12 01:03:45;;;;;;;23.95;10.80;;;1.80;99.90;;;;;;5053082;28;20071;-92
2024/01/12 01:06:10;;;;;;;26.20;12.07;;;1.80;99.90;;;;;;5069187;28;20068;-91
2024/01/12 01:08:36;;;;;;;24.65;10.43;;;1.80;99.90;;;;;;5069873;28;20040;-91
2024/01/12 01:11:02;;;;;;;24.63;10.52;;;1.80;99.90;;;;;;5071014;28;20442;-91
2024/01/12 01:13:28;;;;;;;32.70;12.48;;;1.90;99.90;;;;;;5053512;28;20098;-90
2024/01/12 01:15:53;;;;;;;24.20;11.10;;;1.90;99.90;;;;;;5071318;28;20536;-91
2024/01/12 01:18:19;;;;;;;25.70;11.13;;;1.90;99.90;;;;;;5053646;28;20086;-90
2024/01/12 01:20:44;;;;;;;27.98;12.32;;;1.90;99.90;;;;;;5053015;28;20040;-90
2024/01/12 01:23:10;;;;;;;30.63;12.20;;;1.90;99.90;;;;;;5070075;28;20453;-91
2024/01/12 01:25:36;;;;;;;25.30;9.52;;;1.90;99.90;;;;;;5056054;28;20056;-91
2024/01/12 01:28:02;;;;;;;26.10;10.30;;;2.00;99.90;;;;;;5053113;28;20047;-91
2024/01/12 01:30:28;;;;;;;24.65;10.00;;;2.00;99.90;;;;;;5070091;28;20033;-90
2024/01/12 01:32:53;;;;;;;16.42;7.07;;;2.00;99.90;;;;;;5053136;28;20522;-91
2024/01/12 01:35:19;;;;;;;18.20;8.25;;;2.10;99.90;;;;;;5053540;28;20047;-92
2024/01/12 01:37:45;;;;;;;23.55;10.43;;;2.10;99.90;;;;;;5071355;28;20500;-90
2024/01/12 01:40:10;;;;;;;16.80;7.38;;;2.10;99.90;;;;;;5052703;28;20029;-91
2024/01/12 01:42:36;;;;;;;20.88;8.65;;;2.20;99.90;;;;;;5069725;28;20067;-92
2024/01/12 01:45:02;;;;;;;20.40;8.88;;;2.20;99.90;;;;;;5052339;28;20033;-91
2024/01/12 01:47:28;;;;;;;20.73;9.65;;;2.20;99.90;;;;;;5069468;28;20044;-91
2024/01/12 01:49:55;;;;;;;22.27;9.43;;;2.20;99.90;;;;;;5053328;28;20726;-91
2024/01/12 01:52:23;;;;;;;24.75;9.93;;;2.20;99.90;;;;;;5052998;28;20434;-91
2024/01/12 01:54:49;;;;;;;22.30;9.00;;;2.30;99.90;;;;;;5072129;28;20495;-92
2024/01/12 01:57:15;;;;;;;25.55;9.57;;;2.30;99.90;;;;;;5068852;28;20447;-91
2024/01/12 01:59:41;;;;;;;18.10;7.93;;;2.30;99.90;;;;;;5069720;28;20047;-91
2024/01/12 02:02:08;;;;;;;19.52;6.80;;;2.30;99.90;;;;;;5068848;28;20032;-90
2024/01/12 02:04:34;;;;;;;18.98;7.10;;;2.30;99.90;;;;;;5069374;28;20033;-91
2024/01/12 02:07:01;;;;;;;16.55;7.18;;;2.30;99.90;;;;;;5071218;28;20028;-91
2024/01/12 02:09:28;;;;;;;19.27;7.80;;;2.40;99.90;;;;;;5051639;28;20044;-91
2024/01/12 02:11:54;;;;;;;16.40;5.70;;;2.40;99.90;;;;;;5069616;28;20543;-91
2024/01/12 02:14:20;;;;;;;17.35;6.28;;;2.40;99.90;;;;;;5069191;28;20037;-91
2024/01/12 02:16:46;;;;;;;17.17;5.00;;;2.40;99.90;;;;;;5051961;28;20040;-91
2024/01/12 02:19:11;;;;;;;13.27;4.88;;;2.50;99.90;;;;;;5069315;28;20032;-91
2024/01/12 02:21:37;;;;;;;18.17;6.30;;;2.50;99.90;;;;;;5073480;28;20047;-91
2024/01/12 02:24:03;;;;;;;21.05;6.75;;;2.50;99.90;;;;;;5055410;28;20067;-91
2024/01/12 02:26:28;;;;;;;17.92;5.75;;;2.50;99.90;;;;;;5070400;28;20032;-90
2024/01/12 02:28:54;;;;;;;14.90;6.05;;;2.50;99.90;;;;;;5068755;28;20048;-91
2024/01/12 02:31:20;;;;;;;18.92;6.85;;;2.50;99.90;;;;;;5069462;28;20040;-91
2024/01/12 02:33:48;;;;;;;18.83;7.05;;;2.50;99.90;;;;;;5068596;28;20119;-90
2024/01/12 02:36:14;;;;;;;16.85;6.05;;;2.50;99.90;;;;;;5070153;28;20036;-90
2024/01/12 02:38:39;;;;;;;13.23;5.25;;;2.60;99.90;;;;;;5055670;28;20033;-90
2024/01/12 02:41:05;;;;;;;13.65;4.93;;;2.60;99.90;;;;;;5052100;28;20471;-90
2024/01/12 02:43:30;;;;;;;16.90;4.95;;;2.60;99.90;;;;;;5067131;28;20124;-90
2024/01/12 02:45:56;;;;;;;16.38;4.88;;;2.60;99.90;;;;;;5067472;28;20136;-90
2024/01/12 02:48:22;;;;;;;12.32;3.65;;;2.70;99.90;;;;;;5068272;28;20032;-90
2024/01/12 02:50:47;;;;;;;11.20;4.72;;;2.70;99.90;;;;;;5071570;28;20040;-91
2024/01/12 02:53:13;;;;;;;12.43;4.95;;;2.70;99.90;;;;;;5054863;28;20036;-91
2024/01/12 02:55:38;;;;;;;15.98;4.88;;;2.70;99.90;;;;;;5069092;28;20515;-90
2024/01/12 02:58:04;;;;;;;12.60;4.30;;;2.70;99.90;;;;;;5051524;28;20700;-91
2024/01/12 03:00:30;;;;;;;12.85;4.32;;;2.70;99.90;;;;;;5068011;28;20048;-91
2024/01/12 03:02:56;;;;;;;21.98;4.28;;;2.70;99.90;;;;;;5068823;28;20033;-91
2024/01/12 03:05:22;;;;;;;13.32;3.75;;;2.70;99.90;;;;;;5070718;28;20079;-91
2024/01/12 03:07:47;;;;;;;16.52;4.65;;;2.80;99.90;;;;;;5071426;28;20504;-91
2024/01/12 03:10:16;;;;;;;11.05;4.05;;;2.80;99.90;;;;;;5069872;28;20047;-91
2024/01/12 03:12:42;;;;;;;13.45;4.30;;;2.80;99.90;;;;;;5051838;28;20040;-91
2024/01/12 03:15:07;;;;;;;13.38;3.83;;;2.80;99.90;;;;;;5067068;28;20403;-91
2024/01/12 03:17:33;;;;;;;10.52;3.83;;;2.90;99.90;;;;;;5052589;28;20047;-90
2024/01/12 03:19:59;;;;;;;12.38;3.72;;;2.90;99.90;;;;;;5053751;28;20044;-90
2024/01/12 03:22:24;;;;;;;11.65;3.80;;;2.90;99.90;;;;;;5054934;28;20397;-89
2024/01/12 03:24:50;;;;;;;14.38;4.22;;;2.90;99.90;;;;;;5051501;28;20040;-90
2024/01/12 03:27:16;;;;;;;17.10;3.67;;;2.90;99.90;;;;;;5069808;28;20040;-90
2024/01/12 03:29:41;;;;;;;10.35;3.83;;;2.90;99.90;;;;;;5078764;28;20029;-91
2024/01/12 03:32:07;;;;;;;11.82;4.25;;;2.90;99.90;;;;;;5072118;28;20507;-91
2024/01/12 03:34:32;;;;;;;13.32;3.75;;;2.90;99.90;;;;;;5055509;28;20060;-90
2024/01/12 03:36:58;;;;;;;10.77;4.63;;;2.90;99.90;;;;;;5068757;28;20033;-91
2024/01/12 03:39:24;;;;;;;11.73;3.22;;;2.90;99.90;;;;;;5068860;28;20468;-91
2024/01/12 03:41:49;;;;;;;15.02;4.60;;;2.90;99.90;;;;;;5067356;28;20033;-90
2024/01/12 03:44:15;;;;;;;12.48;4.78;;;2.90;99.90;;;;;;5050292;28;20495;-90
2024/01/12 03:46:40;;;;;;;15.57;4.20;;;2.90;99.90;;;;;;5067644;28;20073;-90
2024/01/12 03:49:06;;;;;;;10.85;4.13;;;3.00;99.90;;;;;;5070383;28;20067;-91
2024/01/12 03:51:32;;;;;;;9.30;3.58;;;3.00;99.90;;;;;;5070413;28;20504;-91
2024/01/12 03:53:58;;;;;;;11.30;3.40;;;3.00;99.90;;;;;;5051495;28;20028;-91
2024/01/12 03:56:23;;;;;;;10.05;3.63;;;3.00;99.90;;;;;;5070487;28;20028;-90
2024/01/12 03:58:49;;;;;;;8.52;3.22;;;2.90;99.90;;;;;;5071675;28;20135;-91
2024/01/12 04:01:14;;;;;;;9.68;3.10;;;3.00;99.90;;;;;;5071735;28;20044;-90
2024/01/12 04:03:41;;;;;;;13.45;3.33;;;3.00;99.90;;;;;;5055457;28;20057;-91
2024/01/12 04:06:10;;;;;;;14.07;2.50;;;3.00;99.90;;;;;;5072970;28;20044;-90
2024/01/12 04:08:36;;;;;;;10.50;3.00;;;3.00;99.90;;;;;;5055697;28;20101;-89
2024/01/12 04:11:02;;;;;;;15.23;3.17;;;2.90;99.90;;;;;;5071034;28;20095;-90
2024/01/12 04:13:27;;;;;;;9.40;2.95;;;2.90;99.90;;;;;;5054333;28;20449;-90
2024/01/12 04:15:53;;;;;;;16.42;4.10;;;2.90;99.90;;;;;;5072868;28;20028;-90
2024/01/12 04:18:19;;;;;;;6.63;2.97;;;2.90;99.90;;;;;;5075229;28;20081;-90
2024/01/12 04:20:44;;;;;;;13.10;3.35;;;2.90;99.90;;;;;;5058431;28;20043;-91
2024/01/12 04:23:10;;;;;;;9.52;2.78;;;2.90;99.90;;;;;;5072775;28;20046;-90
2024/01/12 04:25:36;;;;;;;15.00;3.28;;;3.00;99.90;;;;;;5053299;28;20735;-91
2024/01/12 04:28:02;;;;;;;15.32;3.75;;;3.00;99.90;;;;;;5070832;28;20029;-90
2024/01/12 04:30:27;;;;;;;15.60;3.85;;;3.00;99.90;;;;;;5055035;28;20457;-90
2024/01/12 04:32:53;;;;;;;8.63;3.30;;;3.00;99.90;;;;;;5072988;28;20116;-90
2024/01/12 04:35:19;;;;;;;9.75;3.30;;;3.00;99.90;;;;;;5055208;28;20090;-90
2024/01/12 04:37:44;;;;;;;12.57;4.20;;;3.00;99.90;;;;;;5054143;28;20132;-90
2024/01/12 04:40:10;;;;;;;9.98;3.38;;;3.00;99.90;;;;;;5070385;28;20154;-90
2024/01/12 04:42:36;;;;;;;6.82;2.13;;;3.00;99.90;;;;;;5070840;28;20091;-90
2024/01/12 04:45:02;;;;;;;10.73;3.13;;;3.00;99.90;;;;;;5071326;28;20028;-91
2024/01/12 04:47:27;;;;;;;9.40;2.78;;;3.00;99.90;;;;;;5071205;28;20054;-91
2024/01/12 04:49:53;;;;;;;8.88;3.60;;;3.00;99.90;;;;;;5057072;28;20120;-91
2024/01/12 04:52:19;;;;;;;12.77;3.90;;;3.00;99.90;;;;;;5052750;28;20071;-91
2024/01/12 04:54:44;;;;;;;16.13;2.97;;;3.00;99.90;;;;;;5071030;28;20071;-92
2024/01/12 04:57:10;;;;;;;12.25;3.08;;;3.00;99.90;;;;;;5069551;28;20082;-91
2024/01/12 04:59:36;;;;;;;8.50;2.97;;;2.90;99.90;;;;;;5072601;28;21473;-90
2024/01/12 05:02:01;;;;;;;11.85;3.80;;;2.90;99.90;;;;;;5054934;28;20060;-91
2024/01/12 05:04:27;;;;;;;10.23;3.97;;;2.90;99.90;;;;;;5072485;28;20110;-91
2024/01/12 05:06:52;;;;;;;10.55;3.25;;;2.90;99.90;;;;;;5068458;28;20682;-91
2024/01/12 05:09:18;;;;;;;11.40;3.83;;;2.90;99.90;;;;;;5053132;28;20119;-91
2024/01/12 05:11:44;;;;;;;12.07;3.63;;;2.90;99.90;;;;;;5052661;28;20516;-91
2024/01/12 05:14:09;;;;;;;12.80;3.42;;;2.90;99.90;;;;;;5071137;28;20024;-90
2024/01/12 05:16:35;;;;;;;8.20;3.00;;;2.90;99.90;;;;;;5055391;28;20594;-90
2024/01/12 05:19:00;;;;;;;10.35;3.92;;;2.90;99.90;;;;;;5055118;28;20037;-90
2024/01/12 05:21:26;;;;;;;13.27;3.95;;;2.80;99.90;;;;;;5072080;28;20050;-90
2024/01/12 05:23:51;;;;;;;11.25;4.15;;;2.80;99.90;;;;;;5052800;28;20066;-91
2024/01/12 05:26:17;;;;;;;10.40;3.83;;;2.80;99.90;;;;;;5068919;28;20045;-91
2024/01/12 05:28:43;;;;;;;13.07;4.45;;;2.80;99.90;;;;;;5071232;28;20531;-91
2024/01/12 05:31:09;;;;;;;11.82;3.88;;;2.80;99.90;;;;;;5072681;28;20028;-92
2024/01/12 05:33:35;;;;;;;8.18;3.75;;;2.80;99.90;;;;;;5072453;28;20491;-91
2024/01/12 05:36:00;;;;;;;10.55;3.42;;;2.80;99.90;;;;;;5071767;28;20090;-91
2024/01/12 05:38:26;;;;;;;9.65;3.15;;;2.90;99.90;;;;;;5069150;28;20060;-91
2024/01/12 05:40:51;;;;;;;11.40;3.10;;;2.90;99.90;;;;;;5053263;28;20068;-91
2024/01/12 05:43:18;;;;;;;11.63;3.80;;;2.90;99.90;;;;;;5069975;28;20111;-91
2024/01/12 05:45:43;;;;;;;11.27;3.72;;;2.80;99.90;;;;;;5072719;28;20047;-91
2024/01/12 05:48:09;;;;;;;6.57;2.58;;;2.80;99.90;;;;;;5071040;28;20041;-91
2024/01/12 05:50:35;;;;;;;17.17;3.75;;;2.80;99.90;;;;;;5070195;28;20076;-91
2024/01/12 05:53:01;;;;;;;8.85;3.35;;;2.80;99.90;;;;;;5069080;28;20056;-90
2024/01/12 05:55:26;;;;;;;8.38;3.50;;;2.90;99.90;;;;;;5069692;28;20487;-91
2024/01/12 05:57:52;;;;;;;10.85;3.83;;;2.80;99.90;;;;;;5052961;28;20040;-91
2024/01/12 06:00:18;;;;;;;11.65;3.72;;;2.80;99.90;;;;;;5072134;28;20033;-91
2024/01/12 06:02:43;;;;;;;12.00;2.70;;;2.80;99.90;;;;;;5071834;28;20558;-91
2024/01/12 06:05:09;;;;;;;13.90;3.33;;;2.80;99.90;;;;;;5052329;28;20048;-91
2024/01/12 06:07:34;;;;;;;8.57;2.83;;;2.80;99.90;;;;;;5051244;28;20071;-91
2024/01/12 06:10:00;;;;;;;8.10;2.92;;;2.70;99.90;;;;;;5069646;28;20032;-90
2024/01/12 06:12:26;;;;;;;6.40;2.30;;;2.70;99.90;;;;;;5069249;28;20048;-90
2024/01/12 06:14:53;;;;;;;6.07;2.47;;;2.70;99.90;;;;;;5056038;28;20074;-91
2024/01/12 06:17:18;;;;;;;9.82;2.75;;;2.70;99.90;;;;;;5068233;28;20151;-90
2024/01/12 06:19:44;;;;;;;9.25;3.20;;;2.70;99.90;;;;;;5053574;28;20119;-91
2024/01/12 06:22:10;;;;;;;7.85;2.95;;;2.70;99.90;;;;;;5052257;28;20044;-91
2024/01/12 06:24:35;;;;;;;14.07;3.80;;;2.70;99.90;;;;;;5070044;28;20044;-91
2024/01/12 06:27:01;;;;;;;13.45;4.30;;;2.80;99.90;;;;;;5053216;28;20040;-90
2024/01/12 06:29:26;;;;;;;10.80;4.50;;;2.70;99.90;;;;;;5072399;28;20024;-90
2024/01/12 06:31:52;;;;;;;8.52;3.33;;;2.70;99.90;;;;;;5049591;28;20407;-91
2024/01/12 06:34:18;;;;;;;12.43;3.45;;;2.80;99.90;;;;;;5067609;28;20115;-91
2024/01/12 06:36:44;;;;;;;10.10;3.03;;;2.80;99.90;;;;;;5051538;28;20048;-92
2024/01/12 06:39:09;;;;;;;10.73;2.95;;;2.80;99.90;;;;;;5051860;28;20411;-92
2024/01/12 06:41:42;;;;;;;16.15;3.78;;;2.80;99.90;;;;;;5069205;28;20086;-90
2024/01/12 06:44:07;;;;;;;10.68;3.33;;;2.90;99.90;;;;;;5071193;28;20131;-91
2024/01/12 06:46:35;;;;;;;11.40;2.90;;;2.90;99.90;;;;;;5067463;28;20166;-91
2024/01/12 06:49:00;;;;;;;11.32;2.67;;;2.90;99.90;;;;;;5052575;28;20040;-91
2024/01/12 06:51:26;;;;;;;6.60;2.53;;;2.90;99.90;;;;;;5051408;28;20036;-90
2024/01/12 06:53:52;;;;;;;10.63;2.95;;;2.90;99.90;;;;;;5067769;28;20039;-91
2024/01/12 06:56:21;;;;;;;11.95;3.15;;;2.90;99.90;;;;;;5070576;28;20032;-91
2024/01/12 06:58:47;;;;;;;12.18;3.63;;;2.90;99.90;;;;;;5072887;28;20119;-90
2024/01/12 07:01:12;;;;;;;10.15;3.58;;;2.90;99.90;;;;;;5072742;28;20067;-92
2024/01/12 07:03:38;;;;;;;11.93;3.97;;;2.90;99.90;;;;;;5052171;28;20039;-91
2024/01/12 07:06:04;;;;;;;11.20;3.75;;;2.90;99.90;;;;;;5050430;28;20403;-90
2024/01/12 07:08:29;;;;;;;8.23;2.78;;;2.90;99.90;;;;;;5050851;28;20028;-91
2024/01/12 07:10:55;;;;;;;12.80;3.65;;;2.90;99.90;;;;;;5051714;28;20052;-90
2024/01/12 07:13:20;;;;;;;8.75;3.83;;;2.90;99.90;;;;;;5054516;28;20391;-90
2024/01/12 07:15:46;;;;;;;8.90;3.00;;;2.90;99.90;;;;;;5052165;28;20032;-89
2024/01/12 07:18:11;;;;;;;12.27;2.85;;;2.90;99.90;;;;;;5050293;28;20479;-90
2024/01/12 07:20:37;;;;;;;9.80;2.97;;;2.90;99.90;;;;;;5066897;28;20040;-90
2024/01/12 07:23:03;;;;;;;11.68;3.90;;;2.90;99.90;;;;;;5068317;28;20060;-90
2024/01/12 07:25:29;;;;;;;11.35;3.25;;;2.90;99.90;;;;;;5068107;28;20098;-89
2024/01/12 07:27:55;;;;;;;10.57;3.67;;;2.90;99.90;;;;;;5067920;28;20036;-89
2024/01/12 07:30:21;;;;;;;13.40;3.25;;;2.90;99.90;;;;;;5069927;28;20036;-90
2024/01/12 07:32:46;;;;;;;8.25;3.75;;;2.90;99.90;;;;;;5073688;28;20574;-89
2024/01/12 07:35:12;;;;;;;6.93;2.88;;;2.80;99.90;;;;;;5072248;28;20029;-90
2024/01/12 07:37:38;;;;;;;9.02;2.95;;;2.80;99.90;;;;;;5051635;28;20032;-90
2024/01/12 07:40:04;;;;;;;10.23;3.95;;;2.70;99.90;;;;;;5071150;28;20032;-90
2024/01/12 07:42:30;;;;;;;11.30;3.90;;;2.70;99.90;;;;;;5070415;28;20510;-90
2024/01/12 07:44:56;;;;;;;9.30;3.45;;;2.70;99.90;;;;;;5053914;28;20033;-90
2024/01/12 07:47:22;;;;;;;8.30;3.10;;;2.80;99.90;;;;;;5068314;28;20032;-90
2024/01/12 07:49:47;;;;;;;11.13;4.03;;;2.70;99.90;;;;;;5050792;28;20040;-90
2024/01/12 07:52:13;;;;;;;9.57;3.30;;;2.80;99.90;;;;;;5052864;28;20040;-90
2024/01/12 07:54:38;;;;;;;11.93;3.38;;;2.80;99.90;;;;;;5053789;28;20036;-89
2024/01/12 07:57:04;;;;;;;6.18;2.78;;;2.80;99.90;;;;;;5071281;28;20048;-89
2024/01/12 07:59:30;;;;;;;7.07;2.53;;;2.80;99.90;;;;;;5051736;28;20083;-89
2024/01/12 08:01:55;;;;;;;13.95;3.47;;;2.80;99.90;;;;;;5068764;28;20099;-89
2024/01/12 08:04:21;;;;;;;11.65;3.90;;;2.80;99.90;;;;;;5051424;28;20036;-90
2024/01/12 08:06:47;;;;;;;10.95;3.22;;;2.80;99.90;;;;;;5054471;28;20040;-90
2024/01/12 08:09:13;;;;;;;13.38;3.35;;;2.80;99.90;;;;;;5071962;28;20028;-90
2024/01/12 08:11:39;;;;;;;9.23;3.08;;;2.80;99.90;;;;;;5072149;28;20078;-89
2024/01/12 08:14:05;;;;;;;11.45;3.78;;;2.80;99.90;;;;;;5072156;28;20036;-90
2024/01/12 08:16:32;;;;;;;11.73;3.75;;;2.80;99.90;;;;;;5079261;28;20107;-90
2024/01/12 08:18:58;;;;;;;9.95;2.83;;;2.80;99.90;;;;;;5055918;28;20036;-90
2024/01/12 08:21:24;;;;;;;10.68;2.90;;;2.80;99.90;;;;;;5083684;28;20073;-89
2024/01/12 08:23:50;;;;;;;10.50;3.30;;;2.90;99.90;;;;;;5074455;28;20423;-88
2024/01/12 08:26:15;;;;;;;7.03;2.45;;;2.90;99.90;;;;;;5069389;28;20047;-90
2024/01/12 08:28:41;;;;;;;8.90;2.47;;;2.90;99.90;;;;;;5054009;28;20092;-91
2024/01/12 08:31:06;;;;;;;10.02;3.50;;;2.80;99.90;;;;;;5053640;28;20062;-91
2024/01/12 08:33:32;;;;;;;5.32;2.20;;;2.90;99.90;;;;;;5070920;28;20463;-90
2024/01/12 08:35:57;;;;;;;6.50;2.90;;;2.80;99.90;;;;;;5052853;28;20176;-91
2024/01/12 08:38:23;;;;;;;8.45;3.65;;;2.80;99.90;;;;;;5053411;28;20491;-91
2024/01/12 08:40:49;;;;;;;10.50;3.63;;;2.80;99.90;;;;;;5049446;28;20055;-90
2024/01/12 08:43:16;;;;;;;11.88;3.95;;;2.80;99.90;;;;;;5049597;28;20052;-90
2024/01/12 08:45:42;;;;;;;8.57;3.40;;;2.80;99.90;;;;;;5048569;28;20037;-91
2024/01/12 08:48:08;;;;;;;12.52;3.35;;;2.90;99.90;;;;;;5067698;28;20039;-91
2024/01/12 08:50:34;;;;;;;9.73;4.15;;;2.80;99.90;;;;;;5053592;28;20047;-91
2024/01/12 08:53:00;;;;;;;14.73;5.18;;;2.90;99.90;;;;;;5067499;28;20111;-90
2024/01/12 08:55:26;;;;;;;10.90;4.13;;;2.90;99.90;;;;;;5069502;28;20040;-91
2024/01/12 08:57:54;;;;;;;10.25;3.80;;;2.90;99.90;;;;;;5067247;28;20041;-90
2024/01/12 09:00:20;;;;;;;10.50;4.20;;;2.90;99.90;;;;;;5068924;28;20047;-91
2024/01/12 09:02:45;;;;;;;14.57;4.00;;;2.90;99.90;;;;;;5069705;28;20044;-90
2024/01/12 09:05:11;;;;;;;10.38;3.75;;;2.90;99.90;;;;;;5069377;28;20115;-90
2024/01/12 09:07:38;;;;;;;10.70;3.92;;;2.90;99.90;;;;;;5052092;28;20508;-91
2024/01/12 09:10:03;;;;;;;9.98;3.45;;;3.00;99.90;;;;;;5053349;28;20048;-90
2024/01/12 09:12:29;;;;;;;9.30;3.92;;;3.00;99.90;;;;;;5052874;28;20037;-91
2024/01/12 09:14:55;;;;;;;15.23;4.25;;;3.00;99.90;;;;;;5069200;28;20395;-90
2024/01/12 09:17:20;;;;;;;9.13;3.25;;;3.00;99.90;;;;;;5050746;28;20756;-91
2024/01/12 09:19:46;;;;;;;10.95;4.63;;;3.10;99.90;;;;;;5068407;28;20035;-90
2024/01/12 09:22:12;;;;;;;12.27;3.88;;;3.00;99.90;;;;;;5065905;28;20040;-91
2024/01/12 09:24:37;;;;;;;13.02;4.35;;;3.10;99.90;;;;;;5068666;28;20048;-90
2024/01/12 09:27:03;;;;;;;11.57;4.30;;;3.10;99.90;;;;;;5071140;28;20043;-90
2024/01/12 09:29:29;;;;;;;7.43;3.22;;;3.10;99.90;;;;;;5066998;28;20040;-90
2024/01/12 09:31:54;;;;;;;9.85;4.40;;;3.10;99.90;;;;;;5070491;28;20491;-91
2024/01/12 09:34:20;;;;;;;15.98;4.65;;;3.10;99.90;;;;;;5068905;28;20033;-90
2024/01/12 09:36:45;;;;;;;10.98;4.60;;;3.10;99.90;;;;;;5062444;28;20464;-90
2024/01/12 09:39:14;;;;;;;10.85;4.25;;;3.20;99.90;;;;;;5075833;28;20055;-91
2024/01/12 09:41:48;;;;;;;11.93;3.63;;;3.20;99.90;;;;;;5053310;28;20155;-90
2024/01/12 09:44:22;;;;;;;15.45;4.55;;;3.20;99.90;;;;;;5070272;28;20040;-90
2024/01/12 09:46:56;;;;;;;9.48;3.13;;;3.20;99.90;;;;;;5052896;28;20040;-90
2024/01/12 09:49:23;;;;;;;8.35;2.88;;;3.20;99.90;;;;;;5070868;28;20492;-90
2024/01/12 09:51:49;;;;;;;11.73;3.08;;;3.20;99.90;;;;;;5051880;28;20033;-90
2024/01/12 09:54:16;;;;;;;16.80;4.20;;;3.20;99.90;;;;;;5051308;28;20044;-90
2024/01/12 09:56:44;;;;;;;8.02;3.75;;;3.20;99.90;;;;;;5068435;28;20041;-90
2024/01/12 09:59:09;;;;;;;12.85;3.45;;;3.30;99.90;;;;;;5067763;28;20078;-90
2024/01/12 10:01:35;;;;;;;7.90;3.22;;;3.20;99.90;;;;;;5070237;28;20076;-90
2024/01/12 10:04:01;;;;;;;9.52;3.47;;;3.30;99.90;;;;;;5070140;28;20111;-90
2024/01/12 10:06:26;;;;;;;8.90;3.78;;;3.30;99.90;;;;;;5071990;28;20032;-90
2024/01/12 10:08:52;;;;;;;10.50;3.25;;;3.30;99.90;;;;;;5068517;28;20410;-90
2024/01/12 10:11:18;;;;;;;7.18;3.05;;;3.30;99.90;;;;;;5052188;28;20040;-90
2024/01/12 10:13:43;;;;;;;7.38;2.95;;;3.40;99.90;;;;;;5050997;28;20127;-89
2024/01/12 10:16:09;;;;;;;9.85;2.58;;;3.40;99.90;;;;;;5063147;28;20040;-91
2024/01/12 10:18:35;;;;;;;7.07;2.17;;;3.40;99.90;;;;;;5051049;28;20078;-90
2024/01/12 10:21:00;;;;;;;5.05;2.15;;;3.40;99.90;;;;;;5048758;28;20124;-90
2024/01/12 10:23:26;;;;;;;6.80;3.30;;;3.40;99.90;;;;;;5049314;28;20466;-90
2024/01/12 10:26:06;;;;;;;7.57;3.08;;;3.40;99.90;;;;;;5065241;28;20052;-89
2024/01/12 10:28:32;;;;;;;20.77;4.18;;;3.50;99.90;;;;;;5049180;28;20040;-90
2024/01/12 10:31:03;;;;;;;7.97;2.75;;;3.50;99.90;;;;;;5062805;28;20037;-90
2024/01/12 10:33:28;;;;;;;11.10;3.40;;;3.50;99.90;;;;;;5051002;28;20400;-90
2024/01/12 10:36:22;;;;;;;10.95;3.42;;;3.50;99.90;;;;;;5049816;28;20082;-90
2024/01/12 10:38:49;;;;;;;9.30;3.15;;;3.50;99.90;;;;;;5049823;28;20036;-90
2024/01/12 10:41:21;;;;;;;9.82;2.85;;;3.60;99.90;;;;;;5048582;28;20040;-89
2024/01/12 10:43:51;;;;;;;12.52;4.05;;;3.60;99.90;;;;;;5049052;28;20048;-90
2024/01/12 10:46:40;;;;;;;11.50;2.45;;;3.60;99.90;;;;;;5062811;28;20037;-90
2024/01/12 10:49:14;;;;;;;8.55;2.53;;;3.70;99.90;;;;;;5062787;28;20086;-90
2024/01/12 10:51:46;;;;;;;13.95;4.07;;;3.70;99.90;;;;;;5063779;28;20053;-90
2024/01/12 10:54:29;;;;;;;7.97;2.53;;;3.80;99.90;;;;;;5064013;28;20041;-90
2024/01/12 10:56:55;;;;;;;8.38;3.00;;;3.80;99.90;;;;;;5046786;28;20048;-90
2024/01/12 10:59:22;;;;;;;9.57;3.65;;;3.90;99.90;;;;;;5044472;28;20069;-90
2024/01/12 11:01:49;;;;;;;10.30;2.97;;;3.90;99.90;;;;;;5048289;28;20052;-90
2024/01/12 11:04:15;;;;;;;18.85;4.18;;;3.90;99.90;;;;;;5048550;28;20085;-90
2024/01/12 11:06:44;;;;;;;15.55;3.78;;;3.90;99.90;;;;;;5049489;28;20040;-90
2024/01/12 11:09:12;;;;;;;10.27;3.40;;;4.00;99.90;;;;;;5063647;28;20033;-90
2024/01/12 11:11:52;;;;;;;16.17;3.55;;;4.00;99.90;;;;;;5066156;28;20044;-90
2024/01/12 11:14:20;;;;;;;10.63;2.55;;;4.00;99.90;;;;;;5045182;28;20116;-90
2024/01/12 11:16:46;;;;;;;9.68;2.58;;;4.10;99.90;;;;;;5066963;28;20645;-90
2024/01/12 11:19:13;;;;;;;13.32;3.03;;;4.10;99.90;;;;;;5045889;28;20037;-91
2024/01/12 11:21:40;;;;;;;10.90;2.50;;;4.20;99.90;;;;;;5065889;28;20174;-90
2024/01/12 11:24:07;;;;;;;12.77;2.78;;;4.20;99.90;;;;;;5068830;28;20120;-89
2024/01/12 11:26:32;;;;;;;10.93;3.10;;;4.20;99.90;;;;;;5067029;28;20131;-90
2024/01/12 11:29:01;;;;;;;13.60;3.25;;;4.30;99.90;;;;;;5051314;28;20119;-91
2024/01/12 11:31:27;;;;;;;15.40;2.95;;;4.30;99.90;;;;;;5070409;28;20060;-90
2024/01/12 11:34:03;;;;;;;11.45;3.38;;;4.30;99.90;;;;;;5051042;28;20029;-90
2024/01/12 11:36:30;;;;;;;10.68;2.40;;;4.40;99.90;;;;;;5050296;28;20024;-91
2024/01/12 11:39:00;;;;;;;12.68;2.75;;;4.40;99.90;;;;;;5066997;28;20450;-90
2024/01/12 11:41:30;;;;;;;11.68;2.80;;;4.50;99.90;;;;;;5050789;28;20032;-90
2024/01/12 11:43:56;;;;;;;10.68;2.15;;;4.60;99.90;;;;;;5066519;28;20123;-91
2024/01/12 11:46:26;;;;;;;10.68;2.28;;;4.60;99.90;;;;;;5052437;28;20039;-91
2024/01/12 11:48:52;;;;;;;10.43;2.35;;;4.70;99.90;;;;;;5051546;28;20082;-91
2024/01/12 11:51:23;;;;;;;13.80;2.10;;;4.80;99.90;;;;;;5050831;28;20044;-91
2024/01/12 11:53:51;;;;;;;12.32;2.10;;;4.80;99.90;;;;;;5050133;28;20563;-91
2024/01/12 11:56:16;;;;;;;6.95;1.67;;;4.90;99.90;;;;;;5050033;28;20508;-91
2024/01/12 11:58:42;;;;;;;10.80;1.98;;;4.90;99.90;;;;;;5071619;28;20075;-90
2024/01/12 12:01:08;;;;;;;11.18;2.08;;;5.00;99.90;;;;;;5050480;28;20056;-91
2024/01/12 12:03:34;;;;;;;8.52;1.90;;;5.00;99.90;;;;;;5069736;28;20594;-92
2024/01/12 12:06:00;;;;;;;13.50;1.80;;;5.10;99.90;;;;;;5050884;28;20115;-91
2024/01/12 12:08:27;;;;;;;13.52;2.88;;;5.20;99.90;;;;;;5050312;28;20044;-91
2024/01/12 12:10:53;;;;;;;8.73;2.05;;;5.20;99.90;;;;;;5051362;28;20044;-90
2024/01/12 12:13:19;;;;;;;7.78;1.70;;;5.20;99.90;;;;;;5068021;28;20025;-90
2024/01/12 12:15:45;;;;;;;10.93;2.15;;;5.10;99.90;;;;;;5071366;28;20054;-90
2024/01/12 12:18:12;;;;;;;10.10;1.90;;;5.10;99.90;;;;;;5070831;28;20036;-91
2024/01/12 12:20:37;;;;;;;16.10;1.90;;;5.10;99.90;;;;;;5050573;28;20043;-91
2024/01/12 12:23:03;;;;;;;4.80;2.03;;;5.20;99.90;;;;;;5067687;28;20041;-90
2024/01/12 12:25:29;;;;;;;11.02;1.65;;;5.20;99.90;;;;;;5068665;28;20154;-90
2024/01/12 12:27:55;;;;;;;16.77;2.15;;;5.20;99.90;;;;;;5057055;28;20406;-90
2024/01/12 12:30:21;;;;;;;9.85;2.38;;;5.30;99.90;;;;;;5069235;28;20032;-91
2024/01/12 12:32:47;;;;;;;7.55;2.20;;;5.30;99.90;;;;;;5054309;28;20036;-91
2024/01/12 12:35:13;;;;;;;13.38;1.70;;;5.30;99.90;;;;;;5067658;28;20041;-91
2024/01/12 12:37:42;;;;;;;6.35;1.98;;;5.30;99.90;;;;;;5068351;28;20140;-91
2024/01/12 12:40:10;;;;;;;11.10;2.08;;;5.30;99.90;;;;;;5070467;28;20439;-92
2024/01/12 12:42:35;;;;;;;7.63;2.22;;;5.30;99.90;;;;;;5070960;28;20089;-94